Portland Hillsboro Airport
KHIO : now visible

Aeroporto :











RITROVATECI SU...

 
LOGIN :

Iscrizione | Disclaimer

   EN    FR    IT 

 









Sommario :    VFR   VFR Marginale   IFR   IFR Intensivo   IFR Molto Intensivo
Visibilità : 
Base nubi : 
>= 8 km
>= 3000ft
5 / 8 km
1000 / 3000 ft
1500m / 5 km
500 / 1000 ft
800 / 1500m
200 / 500 ft
< 800m
< 200 ft
Simboli :   Temporali  Nebbia  Neve Forte  Precipitazioni Forti  Vento > 20 kt






- Altitudine del aeroporto : 208 ft


KHIO - Portland Hillsboro

ULTIMO METAR :
  • 272153Z 12005KT 4SM -RA BR OVC016 08/07 A3006 RMK AO2 SLP182 P0007 T00830072

METARs OBSOLETI :
  • 272114Z 10007KT 6SM -RA BR BKN020 OVC025 08/07 A3008 RMK AO2 P0003 T00830067
  • 272053Z 11005KT 7SM -RA OVC035 08/07 A3010 RMK AO2 SLP195 P0005 60007 T00830067 58025
  • 272038Z 12006KT 6SM -RA BR SCT027 OVC035 08/07 A3011 RMK AO2 P0004 T00830067
  • 272024Z 14004KT 8SM -RA BKN027 BKN039 OVC065 08/07 A3012 RMK AO2 P0002 T00830067
  • 271953Z 11005KT 8SM -RA VCFG FEW029 BKN060 OVC075 08/06 A3013 RMK AO2 SLP206 P0002 T00830061

TAF KHIO
Valido dal 27 a 20 ore il 28 a 18 ore UTC


272004Z 2720/2818 13007KT P6SM -RA SCT008 OVC040
FM272300 15010G18KT 3SM -RA BR BKN008 OVC018
FM280200 16014G24KT 3SM -RA BR SCT008 OVC018
FM280800 17015G22KT P6SM -SHRA SCT012 BKN025



MetMap, La meteo Aeronautica in un colpo d'occhio ! - Copyright ORBIFLY Dicembre 2007 - Disclaimer

ORBIFLY MET'MAP TEAM :

Programmazione e sviluppo : Alexandra Zaïnal
Concezione : Baudouin d'Aumeries
Aiuto per la programmazione : Marc-Olivier Méhu
Supporto tecnico e logistico : Manuel Goepfert
Aiuto per la traduzione : Arnaldo La Scala

Contatto : metmap@orbifly.com




FONTI E CREDITI :

   NOAA       Earth
Advisory